Collington, North Carolina
Current Conditions -  °F | °C
As of 1:15 PM on Friday 28 Nov 2014 (Local Time) from KFFA Reporting Station
Clear Clear  
Wind Chill: 38°   Ceiling: Unl
Heat Index: 43°   Visibility: 10mi
Dew Point: 22°   Wind: 8mph
Humidity: 44%   Direction: 320°NW
Pressure: 30.26"   Gusts: NA
Location:  36.1034°N, 75.7289°W
Report Text: KFFA 281815Z AUTO 32007KT 270V340 10SM CLR 06/M05 A3026 RMK AO2 T00601055
Loading
Personal Weather Stations






























Interactive Weather Map New forecast layout! Learn more

10-Day Weather Forecast

Advertisements
Track Severe Weather on mobile